Time;durP1;ratioP1;P1;durP2;ratioP2;P2;SDS_P1;SDS_P2;PMS_P1;PMS_P2;Temp;Humidity;BMP_temperature;BMP_pressure;BME280_temperature;BME280_humidity;BME280_pressure;Samples;Min_cycle;Max_cycle;Signal;HPM_P1;HPM_P2
2022/01/16 00:00:17;;;;;;;0.80;0.80;;;2.70;99.90;;;;;;5157843;27;20105;-79
2022/01/16 00:05:26;;;;;;;2.25;2.15;;;2.70;99.90;;;;;;5157745;27;20130;-77
2022/01/16 00:07:52;;;;;;;1.27;1.17;;;2.70;99.90;;;;;;5139393;27;20134;-78
2022/01/16 00:10:18;;;;;;;0.75;0.75;;;2.70;99.90;;;;;;5122055;27;20051;-78
2022/01/16 00:12:48;;;;;;;3.22;3.03;;;3.30;99.90;;;;;;5121800;27;20436;-78
2022/01/16 00:15:19;;;;;;;1.88;1.77;;;2.70;99.90;;;;;;5138885;27;20046;-78
2022/01/16 00:17:54;;;;;;;2.85;2.70;;;2.70;99.90;;;;;;5122286;27;20446;-79
2022/01/16 00:20:22;;;;;;;1.10;1.08;;;2.70;99.90;;;;;;5139250;27;20439;-77
2022/01/16 00:22:49;;;;;;;8.68;7.82;;;2.70;99.90;;;;;;5121780;27;20065;-79
2022/01/16 00:25:16;;;;;;;1.33;1.23;;;2.70;99.90;;;;;;5121502;27;20072;-79
2022/01/16 00:27:42;;;;;;;2.67;2.47;;;2.70;99.90;;;;;;5138989;27;20451;-80
2022/01/16 00:30:08;;;;;;;1.27;1.25;;;2.70;99.90;;;;;;5122034;27;20042;-80
2022/01/16 00:32:34;;;;;;;0.93;0.93;;;2.70;99.90;;;;;;5138413;27;20063;-79
2022/01/16 00:35:02;;;;;;;1.30;1.20;;;2.70;99.90;;;;;;5121600;27;20043;-80
2022/01/16 00:37:28;;;;;;;0.70;0.70;;;2.60;99.90;;;;;;5156482;27;20050;-78
2022/01/16 00:39:54;;;;;;;1.00;1.00;;;2.60;99.90;;;;;;5121504;27;20069;-78
2022/01/16 00:42:19;;;;;;;2.35;2.25;;;2.60;99.90;;;;;;5156812;27;20031;-79
2022/01/16 00:44:45;;;;;;;1.35;1.25;;;2.60;99.90;;;;;;5156762;27;20050;-79
2022/01/16 00:47:10;;;;;;;0.70;0.70;;;2.80;99.90;;;;;;5156331;27;20070;-79
2022/01/16 00:49:39;;;;;;;1.50;1.40;;;2.60;99.90;;;;;;5156662;27;20131;-79
2022/01/16 00:52:06;;;;;;;3.00;2.83;;;2.30;99.90;;;;;;5156503;27;20046;-79
2022/01/16 00:54:32;;;;;;;2.83;2.60;;;2.40;99.90;;;;;;5156312;27;20099;-79
2022/01/16 00:56:57;;;;;;;0.75;0.75;;;2.40;99.90;;;;;;5156891;27;20042;-78
2022/01/16 00:59:23;;;;;;;3.22;3.00;;;2.40;99.90;;;;;;5138308;27;20130;-81
2022/01/16 01:01:49;;;;;;;1.27;1.27;;;2.40;99.90;;;;;;5156541;27;20049;-81
2022/01/16 01:04:15;;;;;;;2.42;2.25;;;2.30;99.90;;;;;;5156592;27;20045;-80
2022/01/16 01:06:40;;;;;;;0.70;0.70;;;2.30;99.90;;;;;;5138217;27;20034;-79
2022/01/16 01:09:06;;;;;;;0.82;0.82;;;2.30;99.90;;;;;;5104798;27;20145;-78
2022/01/16 01:11:32;;;;;;;1.02;1.02;;;2.30;99.90;;;;;;5138050;27;20482;-80
2022/01/16 01:16:28;;;;;;;1.42;1.33;;;2.30;99.90;;;;;;5121328;27;20141;-79
2022/01/16 01:18:53;;;;;;;1.73;1.63;;;2.30;99.90;;;;;;5087929;27;20047;-79
2022/01/16 01:21:28;;;;;;;0.70;0.70;;;2.30;99.90;;;;;;5156272;27;20399;-78
2022/01/16 01:23:58;;;;;;;2.58;0.93;;;2.30;99.90;;;;;;5156634;27;20042;-79
2022/01/16 01:26:29;;;;;;;1.15;1.05;;;2.30;99.90;;;;;;5121165;27;20542;-79
2022/01/16 01:28:55;;;;;;;1.58;1.48;;;2.30;99.90;;;;;;5156401;27;20085;-80
2022/01/16 01:31:20;;;;;;;1.02;0.93;;;2.30;99.90;;;;;;5137613;27;20054;-79
2022/01/16 01:33:46;;;;;;;3.97;2.88;;;2.30;99.90;;;;;;5137546;27;20039;-79
2022/01/16 01:36:12;;;;;;;0.95;0.95;;;2.50;99.90;;;;;;5137977;27;20166;-79
2022/01/16 01:38:37;;;;;;;1.90;1.80;;;2.30;99.90;;;;;;5137452;27;20049;-79
2022/01/16 01:41:03;;;;;;;0.70;0.70;;;2.40;99.90;;;;;;5155897;27;20054;-79
2022/01/16 01:51:32;;;;;;;0.60;0.60;;;2.30;99.90;;;;;;5122870;27;20050;-79
2022/01/16 01:53:58;;;;;;;1.15;1.08;;;2.30;99.90;;;;;;5155765;27;20034;-79
2022/01/16 01:56:25;;;;;;;0.70;0.70;;;2.30;99.90;;;;;;5137578;27;20043;-79
2022/01/16 01:58:52;;;;;;;1.23;1.13;;;2.20;99.90;;;;;;5137079;27;20042;-80
2022/01/16 02:01:19;;;;;;;0.60;0.60;;;2.10;99.90;;;;;;5137438;27;20038;-79
2022/01/16 02:03:45;;;;;;;0.70;0.70;;;2.10;99.90;;;;;;5137124;27;20038;-79
2022/01/16 02:06:14;;;;;;;21.00;9.43;;;2.10;99.90;;;;;;5155492;27;20126;-78
2022/01/16 02:08:43;;;;;;;6.38;4.57;;;2.10;99.90;;;;;;5136933;27;20280;-80
2022/01/16 02:11:11;;;;;;;2.75;2.55;;;2.10;99.90;;;;;;5137372;27;20041;-78
2022/01/16 02:13:47;;;;;;;1.05;1.05;;;2.10;99.90;;;;;;5103353;27;20039;-78
2022/01/16 02:30:51;;;;;;;2.72;2.60;;;1.90;99.90;;;;;;5116949;27;20439;-79
2022/01/16 02:35:44;;;;;;;1.13;1.13;;;1.90;99.90;;;;;;5155252;27;20329;-80
2022/01/16 02:38:11;;;;;;;1.02;1.02;;;1.90;99.90;;;;;;5154881;27;20497;-79
2022/01/16 02:40:40;;;;;;;1.48;1.17;;;1.90;99.90;;;;;;5119605;27;20099;-79
2022/01/16 02:43:06;;;;;;;2.13;1.92;;;1.90;99.90;;;;;;5136565;27;20035;-79
2022/01/16 02:45:34;;;;;;;0.60;0.60;;;1.90;99.90;;;;;;5136945;27;20042;-79
2022/01/16 02:48:07;;;;;;;0.60;0.60;;;1.90;99.90;;;;;;5099376;28;20059;-80
2022/01/16 02:50:37;;;;;;;3.05;2.88;;;1.90;99.90;;;;;;5133555;28;20127;-80
2022/01/16 02:53:09;;;;;;;5.68;3.38;;;1.90;99.90;;;;;;5133162;28;20054;-79
2022/01/16 02:55:34;;;;;;;1.45;1.35;;;2.50;99.90;;;;;;5134507;27;20050;-80
2022/01/16 02:58:00;;;;;;;0.60;0.60;;;1.90;99.90;;;;;;5134237;27;20047;-80
2022/01/16 03:00:26;;;;;;;0.60;0.60;;;1.90;99.90;;;;;;5134385;27;20039;-79
2022/01/16 03:02:52;;;;;;;1.38;1.30;;;2.10;99.90;;;;;;5133360;28;20035;-79
2022/01/16 03:05:18;;;;;;;0.60;0.60;;;2.00;99.90;;;;;;5133432;28;20047;-78
2022/01/16 03:07:45;;;;;;;0.73;0.73;;;1.90;99.90;;;;;;5132855;28;20546;-81
2022/01/16 03:10:34;;;;;;;14.80;7.85;;;2.00;99.90;;;;;;5133861;27;20475;-79
2022/01/16 03:13:00;;;;;;;24.60;14.02;;;2.00;99.90;;;;;;5132894;28;20043;-79
2022/01/16 03:15:27;;;;;;;1.00;1.00;;;2.30;99.90;;;;;;5132898;28;20050;-79
2022/01/16 03:23:02;;;;;;;1.98;1.88;;;1.90;99.90;;;;;;5137036;27;20088;-78
2022/01/16 03:25:28;;;;;;;0.70;0.70;;;1.90;99.90;;;;;;5119472;27;20046;-78
2022/01/16 03:27:54;;;;;;;4.78;4.43;;;1.90;99.90;;;;;;5137746;27;20436;-79
2022/01/16 03:30:19;;;;;;;3.35;3.13;;;1.90;99.90;;;;;;5136499;27;20050;-79
2022/01/16 03:32:45;;;;;;;0.75;0.75;;;1.90;99.90;;;;;;5136252;27;20042;-79
2022/01/16 03:35:10;;;;;;;3.22;2.95;;;2.00;99.90;;;;;;5119464;27;20039;-79
2022/01/16 03:37:36;;;;;;;2.13;0.93;;;2.20;99.90;;;;;;5137563;27;20129;-79
2022/01/16 03:40:04;;;;;;;1.52;1.42;;;2.00;99.90;;;;;;5136446;27;20051;-79
2022/01/16 03:42:35;;;;;;;1.17;1.13;;;2.00;99.90;;;;;;5137350;27;20047;-79
2022/01/16 03:45:01;;;;;;;30.73;7.50;;;2.00;99.90;;;;;;5136003;27;20039;-78
2022/01/16 03:47:27;;;;;;;5.38;4.65;;;1.40;99.90;;;;;;5135688;27;20047;-79
2022/01/16 03:49:52;;;;;;;2.20;2.10;;;2.00;99.90;;;;;;5136159;27;20126;-79
2022/01/16 03:52:18;;;;;;;0.95;0.95;;;2.00;99.90;;;;;;5137052;27;20375;-80
2022/01/16 03:54:43;;;;;;;4.43;4.03;;;2.00;99.90;;;;;;5137088;27;20090;-79
2022/01/16 03:57:09;;;;;;;0.70;0.70;;;2.00;99.90;;;;;;5137076;27;20461;-79
2022/01/16 03:59:35;;;;;;;5.38;0.90;;;2.00;99.90;;;;;;5137174;27;20039;-80
2022/01/16 04:02:00;;;;;;;0.98;0.98;;;2.10;99.90;;;;;;5136882;27;20380;-79
2022/01/16 04:04:26;;;;;;;0.70;0.70;;;2.10;99.90;;;;;;5135931;27;20055;-80
2022/01/16 04:06:53;;;;;;;1.88;1.77;;;2.10;99.90;;;;;;5136871;27;20122;-78
2022/01/16 04:09:18;;;;;;;4.13;3.15;;;2.10;99.90;;;;;;5135977;27;20137;-79
2022/01/16 04:11:50;;;;;;;0.73;0.73;;;2.20;99.90;;;;;;5118432;27;20081;-79
2022/01/16 04:14:22;;;;;;;0.77;0.77;;;2.20;99.90;;;;;;5135625;27;20081;-78
2022/01/16 04:16:49;;;;;;;1.40;1.30;;;2.10;99.90;;;;;;5135618;27;20096;-79
2022/01/16 04:19:14;;;;;;;1.05;1.02;;;2.20;99.90;;;;;;5135655;27;20378;-78
2022/01/16 04:21:40;;;;;;;5.60;5.20;;;2.20;99.90;;;;;;5118112;27;20043;-78
2022/01/16 04:24:06;;;;;;;0.80;0.80;;;2.20;99.90;;;;;;5136436;27;20046;-79
2022/01/16 04:26:32;;;;;;;0.80;0.80;;;2.30;99.90;;;;;;5136445;27;20043;-79
2022/01/16 04:28:57;;;;;;;1.38;0.90;;;2.40;99.90;;;;;;5134707;27;20074;-79
2022/01/16 04:31:23;;;;;;;1.50;1.40;;;2.40;99.90;;;;;;5135306;27;20054;-78
2022/01/16 04:33:49;;;;;;;2.47;1.77;;;2.30;99.90;;;;;;5136172;27;20042;-78
2022/01/16 04:36:15;;;;;;;3.22;3.03;;;2.40;99.90;;;;;;5136337;27;20046;-79
2022/01/16 04:38:46;;;;;;;0.80;0.80;;;2.30;99.90;;;;;;5118063;27;20390;-78
2022/01/16 04:43:57;;;;;;;5.82;5.43;;;2.30;99.90;;;;;;5135960;27;20173;-78
2022/01/16 04:46:30;;;;;;;28.92;6.50;;;2.30;99.90;;;;;;5135994;27;20125;-79
2022/01/16 04:48:57;;;;;;;1.45;1.23;;;2.30;99.90;;;;;;5134658;27;20047;-79
2022/01/16 04:51:23;;;;;;;;;;;2.40;99.90;;;;;;5136334;27;20051;-78
2022/01/16 04:53:49;;;;;;;0.70;0.70;;;2.50;99.90;;;;;;5117525;27;20266;-79
2022/01/16 04:56:15;;;;;;;4.32;4.05;;;2.40;99.90;;;;;;5135829;27;20054;-79
2022/01/16 04:58:42;;;;;;;2.25;2.15;;;2.40;99.90;;;;;;5134641;27;20043;-78
2022/01/16 05:01:08;;;;;;;;;;;2.40;99.90;;;;;;5136588;27;20126;-78
2022/01/16 05:03:34;;;;;;;15.98;14.73;;;2.40;99.90;;;;;;5135646;27;19984;-79
2022/01/16 05:06:01;;;;;;;3.00;2.80;;;2.40;99.90;;;;;;5135754;27;20046;-78
2022/01/16 05:08:28;;;;;;;1.90;1.80;;;2.40;99.90;;;;;;5134743;27;20093;-79
2022/01/16 05:10:55;;;;;;;0.82;0.82;;;2.40;99.90;;;;;;5134485;27;20436;-79
2022/01/16 05:18:53;;;;;;;3.83;3.53;;;;;;;;;;5134729;27;20112;-78
2022/01/16 05:21:18;;;;;;;0.70;0.70;;;2.40;99.90;;;;;;5134506;27;20054;-78
2022/01/16 05:23:44;;;;;;;0.95;0.95;;;2.30;99.90;;;;;;5135340;27;20114;-79
2022/01/16 05:26:11;;;;;;;0.82;0.82;;;2.30;99.90;;;;;;5134460;27;20039;-78
2022/01/16 05:28:37;;;;;;;3.85;2.05;;;2.20;99.90;;;;;;5117734;27;20035;-78
2022/01/16 05:31:03;;;;;;;1.52;1.35;;;2.40;99.90;;;;;;5135559;27;20440;-78
2022/01/16 05:33:29;;;;;;;2.15;2.05;;;2.40;99.90;;;;;;5133936;27;20043;-78
2022/01/16 05:35:55;;;;;;;11.80;7.53;;;2.40;99.90;;;;;;5134112;27;20049;-79
2022/01/16 05:38:21;;;;;;;0.93;0.93;;;2.40;99.90;;;;;;5134046;27;20046;-79
2022/01/16 05:40:46;;;;;;;2.33;2.20;;;2.40;99.90;;;;;;5117086;28;20050;-79
2022/01/16 05:43:12;;;;;;;12.57;5.78;;;2.50;99.90;;;;;;5135189;27;20047;-79
2022/01/16 05:45:38;;;;;;;0.90;0.90;;;2.50;99.90;;;;;;5135006;27;20130;-78
2022/01/16 05:48:03;;;;;;;1.42;1.33;;;2.50;99.90;;;;;;5133574;27;20506;-79
2022/01/16 05:50:31;;;;;;;3.97;3.78;;;2.50;99.90;;;;;;5116896;27;20096;-79
2022/01/16 05:52:57;;;;;;;2.00;1.90;;;2.50;99.90;;;;;;5133395;27;20039;-79
2022/01/16 05:55:23;;;;;;;2.47;2.33;;;2.50;99.90;;;;;;5133684;27;20046;-79
2022/01/16 05:57:48;;;;;;;1.77;1.67;;;2.50;99.90;;;;;;5133652;27;20045;-79
2022/01/16 06:00:15;;;;;;;0.60;0.60;;;2.90;99.90;;;;;;5133678;27;20054;-80
2022/01/16 06:02:41;;;;;;;1.73;1.63;;;2.50;99.90;;;;;;5116603;28;20088;-79
2022/01/16 06:05:08;;;;;;;2.67;2.47;;;2.50;99.90;;;;;;5134837;27;20046;-80
2022/01/16 06:07:34;;;;;;;3.13;2.63;;;2.60;99.90;;;;;;5134700;27;20047;-79
2022/01/16 06:09:59;;;;;;;2.92;2.35;;;2.60;99.90;;;;;;5133942;28;20058;-79
2022/01/16 06:12:25;;;;;;;0.90;0.90;;;2.60;99.90;;;;;;5133290;28;20042;-78
2022/01/16 06:14:51;;;;;;;1.57;1.47;;;3.10;99.90;;;;;;5134339;28;20394;-78
2022/01/16 06:17:16;;;;;;;4.75;3.97;;;2.60;99.90;;;;;;5133621;28;20047;-77
2022/01/16 06:19:42;;;;;;;2.30;2.20;;;2.60;99.90;;;;;;5134577;28;20550;-78
2022/01/16 06:22:08;;;;;;;0.70;0.70;;;2.70;99.90;;;;;;5134489;28;20039;-79
2022/01/16 06:24:33;;;;;;;0.80;0.80;;;2.70;99.90;;;;;;5134486;28;20043;-78
2022/01/16 06:26:59;;;;;;;2.33;2.22;;;2.60;99.90;;;;;;5134542;28;20483;-78
2022/01/16 06:29:25;;;;;;;1.77;1.67;;;2.70;99.90;;;;;;5133586;28;20061;-77
2022/01/16 06:31:51;;;;;;;0.82;0.82;;;2.70;99.90;;;;;;5133877;28;20513;-77
2022/01/16 06:34:17;;;;;;;1.45;1.35;;;2.70;99.90;;;;;;5134397;27;20032;-80
2022/01/16 06:36:42;;;;;;;1.45;1.35;;;2.80;99.90;;;;;;5133493;28;20040;-78
2022/01/16 06:39:10;;;;;;;0.90;0.90;;;2.70;99.90;;;;;;5133046;28;20047;-78
2022/01/16 06:41:37;;;;;;;1.50;1.38;;;2.80;99.90;;;;;;5133148;28;20075;-79
2022/01/16 06:44:03;;;;;;;1.50;1.40;;;2.90;99.90;;;;;;5134438;27;20534;-79
2022/01/16 06:46:29;;;;;;;1.23;1.17;;;2.80;99.90;;;;;;5134246;27;20090;-78
2022/01/16 06:48:55;;;;;;;1.88;1.77;;;2.80;99.90;;;;;;5133025;28;20047;-78
2022/01/16 06:51:22;;;;;;;0.75;0.75;;;2.80;99.90;;;;;;5133398;28;20103;-78
2022/01/16 06:53:48;;;;;;;1.08;1.08;;;2.90;99.90;;;;;;5136007;27;20039;-78
2022/01/16 06:56:16;;;;;;;3.25;3.05;;;2.80;99.90;;;;;;5136916;27;20053;-76
2022/01/16 06:58:41;;;;;;;1.38;1.27;;;3.20;99.90;;;;;;5119899;27;20482;-77
2022/01/16 07:01:07;;;;;;;0.80;0.80;;;2.80;99.90;;;;;;5136754;27;20054;-76
2022/01/16 07:03:33;;;;;;;2.80;2.60;;;2.90;99.90;;;;;;5137108;27;20045;-78
2022/01/16 07:06:00;;;;;;;2.60;2.40;;;2.60;99.90;;;;;;5138015;27;20047;-80
2022/01/16 07:08:26;;;;;;;4.13;3.83;;;2.90;99.90;;;;;;5136932;27;20057;-79
2022/01/16 07:10:54;;;;;;;0.88;0.88;;;3.00;99.90;;;;;;5137982;27;20047;-76
2022/01/16 07:13:21;;;;;;;1.40;1.30;;;2.90;99.90;;;;;;5137896;27;20039;-76
2022/01/16 07:15:48;;;;;;;1.48;1.35;;;2.90;99.90;;;;;;5137946;27;20139;-76
2022/01/16 07:18:13;;;;;;;2.83;2.63;;;2.90;99.90;;;;;;5137960;27;20096;-77
2022/01/16 07:20:39;;;;;;;0.60;0.60;;;3.00;99.90;;;;;;5137841;27;20479;-76
2022/01/16 07:23:05;;;;;;;1.15;1.15;;;3.00;99.90;;;;;;5137089;27;20039;-76
2022/01/16 07:25:31;;;;;;;1.15;0.80;;;3.00;99.90;;;;;;5137710;27;20039;-76
2022/01/16 07:27:57;;;;;;;0.60;0.60;;;3.00;99.90;;;;;;5137809;27;20057;-75
2022/01/16 07:30:22;;;;;;;2.30;2.15;;;3.00;99.90;;;;;;5136769;27;20050;-76
2022/01/16 07:32:48;;;;;;;1.40;1.30;;;3.00;99.90;;;;;;5136388;27;20091;-77
2022/01/16 07:35:13;;;;;;;1.40;1.30;;;3.10;99.90;;;;;;5137654;27;20051;-77
2022/01/16 07:37:39;;;;;;;4.32;3.95;;;3.10;99.90;;;;;;5136325;27;20043;-78
2022/01/16 07:40:05;;;;;;;5.80;5.28;;;2.90;99.90;;;;;;5137621;27;20047;-78
2022/01/16 07:42:31;;;;;;;0.83;0.70;;;3.10;99.90;;;;;;5136523;27;20051;-78
2022/01/16 07:44:56;;;;;;;2.65;2.45;;;3.20;99.90;;;;;;5136179;27;20299;-75
2022/01/16 07:47:22;;;;;;;1.73;1.63;;;3.20;99.90;;;;;;5119016;27;20173;-76
2022/01/16 07:49:48;;;;;;;1.33;1.23;;;3.20;99.90;;;;;;5119337;27;20061;-76
2022/01/16 07:52:13;;;;;;;1.35;1.25;;;3.20;99.90;;;;;;5136140;27;20047;-75
2022/01/16 07:54:39;;;;;;;1.02;1.02;;;3.20;99.90;;;;;;5137223;27;20489;-75
2022/01/16 07:57:04;;;;;;;1.95;1.85;;;3.20;99.90;;;;;;5137188;27;20043;-76
2022/01/16 07:59:30;;;;;;;2.13;2.03;;;3.20;99.90;;;;;;5137269;27;20471;-77
2022/01/16 08:01:56;;;;;;;8.43;6.35;;;3.90;99.90;;;;;;5137097;27;20042;-76
2022/01/16 08:04:21;;;;;;;0.95;0.95;;;3.40;99.90;;;;;;5135304;27;20559;-77
2022/01/16 08:06:47;;;;;;;1.67;1.38;;;3.30;99.90;;;;;;5136981;27;20529;-77
2022/01/16 08:09:13;;;;;;;0.85;0.85;;;4.30;99.90;;;;;;5118916;27;20406;-76
2022/01/16 08:11:38;;;;;;;5.93;5.38;;;3.30;99.90;;;;;;5135624;27;20532;-76
2022/01/16 08:14:04;;;;;;;2.38;2.17;;;3.40;99.90;;;;;;5135769;27;20039;-76
2022/01/16 08:16:29;;;;;;;0.82;0.80;;;3.40;99.90;;;;;;5135534;27;20471;-76
2022/01/16 08:18:55;;;;;;;3.70;0.95;;;3.40;99.90;;;;;;5136453;27;20043;-77
2022/01/16 08:21:20;;;;;;;1.52;1.42;;;3.40;99.90;;;;;;5136538;27;20039;-75
2022/01/16 08:23:46;;;;;;;0.80;0.80;;;3.40;99.90;;;;;;5136253;27;20047;-76
2022/01/16 08:26:12;;;;;;;3.63;3.20;;;3.50;99.90;;;;;;5135600;27;20058;-79
2022/01/16 08:28:37;;;;;;;2.10;2.00;;;3.50;99.90;;;;;;5136542;27;20433;-76
2022/01/16 08:31:03;;;;;;;12.20;3.17;;;3.60;99.90;;;;;;5136339;27;20047;-76
2022/01/16 08:33:28;;;;;;;0.73;0.73;;;3.60;99.90;;;;;;5136314;27;20043;-77
2022/01/16 08:35:54;;;;;;;4.15;1.90;;;;;;;;;;5135372;27;20092;-77
2022/01/16 08:38:21;;;;;;;4.43;1.70;;;3.60;99.90;;;;;;5135588;27;20043;-78
2022/01/16 08:40:47;;;;;;;;;;;3.70;99.90;;;;;;5136904;27;20372;-79
2022/01/16 08:43:12;;;;;;;2.97;2.78;;;3.70;99.90;;;;;;5135214;27;20398;-78
2022/01/16 08:45:40;;;;;;;0.90;0.90;;;3.70;99.90;;;;;;5136589;27;20043;-80
2022/01/16 08:48:06;;;;;;;1.33;1.23;;;3.50;99.90;;;;;;5134750;27;20047;-79
2022/01/16 08:50:33;;;;;;;0.70;0.70;;;3.80;99.90;;;;;;5136218;27;20066;-78
2022/01/16 08:52:59;;;;;;;1.05;0.80;;;3.80;99.90;;;;;;5135824;27;20043;-84
2022/01/16 08:55:25;;;;;;;1.58;1.48;;;3.80;99.90;;;;;;5135157;27;20043;-81
2022/01/16 08:57:51;;;;;;;10.45;3.28;;;3.80;99.90;;;;;;5117180;27;20071;-81
2022/01/16 09:00:17;;;;;;;2.72;2.50;;;3.90;99.90;;;;;;5096702;28;20043;-81
2022/01/16 09:02:42;;;;;;;1.15;1.08;;;4.10;99.90;;;;;;5113568;28;20047;-79
2022/01/16 09:05:08;;;;;;;2.38;2.25;;;3.90;99.90;;;;;;5096740;28;20043;-81
2022/01/16 09:07:34;;;;;;;3.43;3.20;;;3.90;99.90;;;;;;5113387;28;20050;-82
2022/01/16 09:10:01;;;;;;;1.57;1.47;;;3.50;99.90;;;;;;5113447;28;20350;-80
2022/01/16 09:12:28;;;;;;;1.95;1.85;;;4.00;99.90;;;;;;5114489;28;20093;-82
2022/01/16 09:14:53;;;;;;;0.82;0.82;;;4.00;99.90;;;;;;5114216;28;20097;-80
2022/01/16 09:17:19;;;;;;;0.95;0.95;;;4.00;99.90;;;;;;5112482;28;20040;-82
2022/01/16 09:19:46;;;;;;;1.70;1.60;;;4.00;99.90;;;;;;5113502;28;20044;-82
2022/01/16 09:22:11;;;;;;;6.03;2.88;;;4.00;99.90;;;;;;5096637;28;20059;-80
2022/01/16 09:24:37;;;;;;;1.35;1.25;;;4.20;99.90;;;;;;5113727;28;20047;-81
2022/01/16 09:27:03;;;;;;;2.85;2.65;;;4.90;99.90;;;;;;5113343;28;20054;-81
2022/01/16 09:29:28;;;;;;;3.38;1.00;;;4.20;99.90;;;;;;5113415;28;20044;-80
2022/01/16 09:31:54;;;;;;;2.58;1.77;;;4.20;99.90;;;;;;5113341;28;20047;-82
2022/01/16 09:34:19;;;;;;;1.90;1.80;;;4.20;99.90;;;;;;5097054;28;20077;-83
2022/01/16 09:36:45;;;;;;;1.27;1.20;;;4.20;99.90;;;;;;5096834;28;20044;-83
2022/01/16 09:39:11;;;;;;;0.88;0.88;;;4.30;99.90;;;;;;5113504;28;20047;-80
2022/01/16 09:41:36;;;;;;;0.70;0.70;;;4.40;99.90;;;;;;5097010;28;20084;-84
2022/01/16 09:44:03;;;;;;;1.17;1.08;;;4.40;99.90;;;;;;5096207;28;20086;-82
2022/01/16 09:46:29;;;;;;;1.55;1.45;;;4.40;99.90;;;;;;5113753;28;20384;-83
2022/01/16 09:48:55;;;;;;;1.00;1.00;;;4.40;99.90;;;;;;5112634;28;20052;-85
2022/01/16 09:51:20;;;;;;;6.03;3.40;;;4.30;99.90;;;;;;5096045;28;20517;-85
2022/01/16 09:53:47;;;;;;;1.60;1.50;;;4.50;99.90;;;;;;5114248;28;20039;-86
2022/01/16 09:56:13;;;;;;;9.48;2.45;;;4.60;99.90;;;;;;5113211;28;20087;-82
2022/01/16 09:58:41;;;;;;;1.00;1.00;;;4.60;99.90;;;;;;5115352;28;20124;-84
2022/01/16 10:01:06;;;;;;;0.82;0.82;;;4.90;99.90;;;;;;5116292;28;20043;-82
2022/01/16 10:03:33;;;;;;;1.42;1.33;;;4.60;99.90;;;;;;5114827;28;20125;-82
2022/01/16 10:06:16;;;;;;;2.15;2.05;;;4.60;99.90;;;;;;5112770;28;20093;-82
2022/01/16 10:08:44;;;;;;;1.05;0.85;;;4.70;99.90;;;;;;5097158;28;20041;-85
2022/01/16 10:11:30;;;;;;;0.80;0.80;;;4.60;99.90;;;;;;5113232;28;20093;-83
2022/01/16 10:14:03;;;;;;;4.00;3.05;;;4.70;99.90;;;;;;5113034;28;20044;-81
2022/01/16 10:16:32;;;;;;;0.70;0.70;;;4.70;99.90;;;;;;5112798;28;20529;-82
2022/01/16 10:18:58;;;;;;;1.75;1.23;;;4.70;99.90;;;;;;5113670;28;20097;-84
2022/01/16 10:21:37;;;;;;;2.90;2.70;;;4.80;99.90;;;;;;5114318;28;20035;-86
2022/01/16 10:24:36;;;;;;;1.30;1.23;;;4.80;99.90;;;;;;5098225;28;20040;-84
2022/01/16 10:27:07;;;;;;;2.15;0.82;;;4.80;99.90;;;;;;5070467;28;20091;-84
2022/01/16 10:29:37;;;;;;;0.75;0.75;;;6.30;99.90;;;;;;5097173;28;20567;-86
2022/01/16 10:32:13;;;;;;;0.60;0.60;;;4.90;99.90;;;;;;5096721;28;20048;-81
2022/01/16 10:34:40;;;;;;;5.15;2.78;;;4.90;99.90;;;;;;5093457;28;20075;-80
2022/01/16 10:37:26;;;;;;;;;;;4.90;99.90;;;;;;5117913;28;20047;-80
2022/01/16 10:39:59;;;;;;;0.80;0.80;;;5.00;99.90;;;;;;5117912;28;19920;-83
2022/01/16 10:42:25;;;;;;;1.23;1.13;;;5.00;99.90;;;;;;5117769;28;20047;-80
2022/01/16 10:45:03;;;;;;;1.40;1.33;;;5.00;99.90;;;;;;5117549;28;20051;-81
2022/01/16 10:47:37;;;;;;;1.08;0.98;;;5.10;99.90;;;;;;5125018;27;20628;-80
2022/01/16 10:50:07;;;;;;;1.33;1.23;;;5.10;99.90;;;;;;5137729;27;20069;-82
2022/01/16 10:52:44;;;;;;;1.45;1.35;;;5.10;99.90;;;;;;5138191;27;20051;-83
2022/01/16 10:55:10;;;;;;;0.75;0.75;;;5.10;99.90;;;;;;5103044;27;20045;-81
2022/01/16 10:57:36;;;;;;;1.02;1.02;;;5.20;99.90;;;;;;5102944;27;20047;-79
2022/01/16 11:00:09;;;;;;;0.98;0.98;;;5.20;99.90;;;;;;5119329;27;20039;-78
2022/01/16 11:02:36;;;;;;;0.60;0.60;;;5.20;99.90;;;;;;5119915;27;20432;-78
2022/01/16 11:05:14;;;;;;;0.68;0.68;;;5.30;99.90;;;;;;5119944;27;20454;-81
2022/01/16 11:07:40;;;;;;;1.33;1.23;;;5.30;99.90;;;;;;5137821;27;20051;-79
2022/01/16 11:10:23;;;;;;;2.70;2.50;;;5.30;99.90;;;;;;5102878;27;20039;-82
2022/01/16 11:12:49;;;;;;;1.08;1.08;;;5.40;99.90;;;;;;5119320;27;20073;-79
2022/01/16 11:15:16;;;;;;;1.27;1.17;;;5.40;99.90;;;;;;5102419;27;20035;-80
2022/01/16 11:17:42;;;;;;;0.63;0.63;;;5.40;99.90;;;;;;5119256;27;20411;-78
2022/01/16 11:20:09;;;;;;;1.25;1.15;;;5.40;99.90;;;;;;5102148;27;20047;-79
2022/01/16 11:22:55;;;;;;;1.83;1.73;;;5.40;99.90;;;;;;5119367;27;20047;-82
2022/01/16 11:25:31;;;;;;;3.35;2.15;;;5.50;99.90;;;;;;5114880;27;20165;-78
2022/01/16 11:28:07;;;;;;;2.03;1.92;;;5.50;99.90;;;;;;5137159;27;20043;-79
2022/01/16 11:30:35;;;;;;;3.05;1.77;;;5.50;99.90;;;;;;5119344;27;20043;-79
2022/01/16 11:33:01;;;;;;;2.42;2.22;;;5.50;99.90;;;;;;5119254;27;20047;-79
2022/01/16 11:35:28;;;;;;;0.98;0.98;;;5.50;99.90;;;;;;5102130;27;20351;-77
2022/01/16 11:37:55;;;;;;;0.65;0.65;;;5.50;99.90;;;;;;5136807;27;20126;-76
2022/01/16 11:40:24;;;;;;;;;;;5.50;99.90;;;;;;5117910;27;20044;-82
2022/01/16 11:43:14;;;;;;;0.70;0.70;;;5.50;99.90;;;;;;5118631;27;19919;-77
2022/01/16 11:46:03;;;;;;;0.60;0.60;;;5.50;99.90;;;;;;5137132;27;20062;-78
2022/01/16 11:48:38;;;;;;;0.60;0.60;;;5.50;99.90;;;;;;5137731;27;20066;-80
2022/01/16 11:51:06;;;;;;;1.42;1.30;;;5.60;99.90;;;;;;5118513;27;20055;-80
2022/01/16 11:53:56;;;;;;;2.35;2.15;;;5.90;99.90;;;;;;5118278;27;20031;-81
2022/01/16 11:56:40;;;;;;;5.80;1.88;;;5.50;99.90;;;;;;5137009;27;20416;-82
2022/01/16 11:59:12;;;;;;;2.58;1.77;;;5.50;99.90;;;;;;5118504;27;20046;-79
2022/01/16 12:01:44;;;;;;;1.63;1.52;;;5.50;99.90;;;;;;5118433;27;20240;-83
2022/01/16 12:04:28;;;;;;;0.50;0.50;;;5.70;99.90;;;;;;5136958;27;20044;-81
2022/01/16 12:07:12;;;;;;;0.90;0.90;;;5.60;99.90;;;;;;5118306;27;20043;-78
2022/01/16 12:12:15;;;;;;;0.60;0.60;;;5.60;99.90;;;;;;5118145;27;20043;-80
2022/01/16 12:14:48;;;;;;;1.60;1.50;;;6.10;99.90;;;;;;5118096;27;20111;-83
2022/01/16 12:17:33;;;;;;;1.20;1.15;;;5.60;99.90;;;;;;5101017;27;20055;-77
2022/01/16 12:20:24;;;;;;;2.45;2.30;;;5.60;99.90;;;;;;5116589;27;20036;-80
2022/01/16 12:23:09;;;;;;;0.60;0.60;;;5.60;99.90;;;;;;5117457;27;20121;-78
2022/01/16 12:25:52;;;;;;;1.25;1.15;;;5.60;99.90;;;;;;5100296;27;20054;-79
2022/01/16 12:28:22;;;;;;;1.00;0.95;;;5.70;99.90;;;;;;5136314;27;20051;-78
2022/01/16 12:30:52;;;;;;;0.60;0.60;;;5.70;99.90;;;;;;5136690;27;20402;-78
2022/01/16 12:33:23;;;;;;;1.80;1.63;;;5.70;99.90;;;;;;5117958;27;20046;-77
2022/01/16 12:35:52;;;;;;;0.50;0.50;;;5.70;99.90;;;;;;5118353;27;20092;-79
2022/01/16 12:38:20;;;;;;;1.60;1.00;;;5.70;99.90;;;;;;5153593;27;20068;-80
2022/01/16 12:40:51;;;;;;;1.05;0.95;;;5.70;99.90;;;;;;5156763;27;20074;-77
2022/01/16 12:43:26;;;;;;;1.50;1.15;;;5.80;99.90;;;;;;5155473;27;20091;-78
2022/01/16 12:45:52;;;;;;;0.60;0.60;;;6.20;99.90;;;;;;5136743;27;20045;-78
2022/01/16 12:48:17;;;;;;;1.15;1.05;;;5.80;99.90;;;;;;5137937;27;20455;-78
2022/01/16 12:50:43;;;;;;;1.15;1.05;;;5.80;99.90;;;;;;5138047;27;20055;-78
2022/01/16 12:53:10;;;;;;;1.77;1.67;;;5.80;99.90;;;;;;5156659;27;20486;-79
2022/01/16 12:55:35;;;;;;;1.75;1.65;;;5.90;99.90;;;;;;5157113;27;20049;-79
2022/01/16 12:58:21;;;;;;;0.93;0.75;;;5.90;99.90;;;;;;5138230;27;20042;-79
2022/01/16 13:01:00;;;;;;;0.60;0.60;;;5.90;99.90;;;;;;5156586;27;20039;-78
2022/01/16 13:03:26;;;;;;;0.50;0.50;;;5.90;99.90;;;;;;5138136;27;20099;-78
2022/01/16 13:05:52;;;;;;;0.60;0.60;;;6.00;99.90;;;;;;5156417;27;20083;-79
2022/01/16 13:08:17;;;;;;;1.75;1.65;;;6.00;99.90;;;;;;5138842;27;20042;-78
2022/01/16 13:10:43;;;;;;;1.48;1.40;;;6.00;99.90;;;;;;5156354;27;20054;-78
2022/01/16 13:13:12;;;;;;;0.52;0.52;;;6.10;99.90;;;;;;5138009;27;20045;-79
2022/01/16 13:15:37;;;;;;;0.75;0.75;;;6.10;99.90;;;;;;5156064;27;20042;-78
2022/01/16 13:18:11;;;;;;;0.80;0.80;;;6.20;99.90;;;;;;5138002;27;20049;-79
2022/01/16 13:20:37;;;;;;;0.50;0.50;;;6.10;99.90;;;;;;5156616;27;20072;-79
2022/01/16 13:23:02;;;;;;;0.50;0.50;;;6.20;99.90;;;;;;5156150;27;20470;-78
2022/01/16 13:25:29;;;;;;;0.50;0.50;;;6.20;99.90;;;;;;5156560;27;20038;-78
2022/01/16 13:27:56;;;;;;;0.68;0.68;;;6.60;99.90;;;;;;5137798;27;20043;-78
2022/01/16 13:30:25;;;;;;;0.82;0.82;;;6.60;99.90;;;;;;5156247;27;20053;-78
2022/01/16 13:32:51;;;;;;;0.60;0.60;;;6.20;99.90;;;;;;5155897;27;20043;-78
2022/01/16 13:35:29;;;;;;;0.50;0.50;;;6.20;99.90;;;;;;5155912;27;20054;-78
2022/01/16 13:38:07;;;;;;;0.60;0.60;;;6.20;99.90;;;;;;5120480;27;20402;-79
2022/01/16 13:40:32;;;;;;;0.50;0.50;;;6.20;99.90;;;;;;5155816;27;20134;-80
2022/01/16 13:43:11;;;;;;;0.52;0.52;;;6.20;99.90;;;;;;5155829;27;20074;-78
2022/01/16 13:45:41;;;;;;;0.73;0.73;;;6.30;99.90;;;;;;5137250;27;20043;-78
2022/01/16 13:48:12;;;;;;;1.40;1.30;;;6.30;99.90;;;;;;5116701;27;20518;-78